Latest Coastal Weather Observations for Warruwi

IDD60701

Issued at 10:01 pm CST Tuesday 23 May 2017 (issued every 10 minutes, with the page automatically refreshed every 10 minutes)

About coastal observations | Map of coastal stations | Coastal observations for NT | Marine services | Other Formats
Station Details ID: 014401 Name: WARRUWI AIRPORT Lat: -11.65 Lon: 133.38 Height: 19.2 m
Data from the previous 72 hours. | See also: Recent months at Warruwi
Date/Time
CST
Temp
°C
Wind Pressure Rain since
9am
mm
Weather Cloud Vis
km
Sea
Height
m
Swell
Dir  Spd
kts
Gust
kts
hPa Trend Height
m
Period
s
Dir
23/10:00pm 27.8 E 6 8 1012.8 - 0.0 - - - - - - -
23/09:30pm 27.8 E 6 8 1012.7 - 0.0 - - - - - - -
23/09:00pm 27.9 E 6 8 1012.5 - 0.0 - - - - - - -
23/08:30pm 27.8 E 6 8 1012.2 - 0.0 - - - - - - -
23/08:00pm 27.8 E 6 9 1011.8 - 0.0 - - - - - - -
23/07:30pm 27.6 E 5 8 1011.6 - 0.0 - - - - - - -
23/07:00pm 27.6 ENE 4 6 1011.5 - 0.0 - - - - - - -
23/06:30pm 27.9 ENE 4 6 1011.3 - 0.0 - - - - - - -
23/06:00pm 28.2 ENE 6 11 1011.1 - 0.0 - - - - - - -
23/05:30pm 28.9 ENE 5 10 1010.9 - 0.0 - - - - - - -
23/05:00pm 29.2 E 7 11 1010.6 - 0.0 - - - - - - -
23/04:30pm 29.5 ENE 8 12 1010.6 - 0.0 - - - - - - -
23/04:00pm 29.8 ENE 9 15 1010.5 - 0.0 - - - - - - -
23/03:30pm 30.2 E 9 16 1010.7 - 0.0 - - - - - - -
23/03:00pm 30.2 ENE 9 15 1010.8 - 0.0 - - - - - - -
23/02:30pm 30.3 ENE 9 15 1011.0 - 0.0 - - - - - - -
23/02:00pm 30.7 E 11 17 1011.2 - 0.0 - - - - - - -
23/01:30pm 30.6 E 11 16 1011.5 - 0.0 - - - - - - -
23/01:00pm 30.7 E 12 20 1012.0 - 0.0 - - - - - - -
23/12:30pm 30.9 E 11 17 1012.4 - 0.0 - - - - - - -
23/12:00pm 30.8 ESE 12 15 1012.8 - 0.0 - - - - - - -
23/11:30am 30.2 E 11 16 1013.1 - 0.0 - - - - - - -
23/11:00am 29.3 ESE 12 15 1013.3 - 0.0 - - - - - - -
23/10:30am 29.1 ESE 11 15 1013.5 - 0.0 - - - - - - -
23/10:00am 28.4 ESE 10 15 1013.8 - 0.0 - - - - - - -
23/09:30am 27.6 ESE 11 16 1013.8 - 0.0 - - - - - - -
23/09:00am 28.3 ESE 9 14 1013.8 - 0.0 - - - - - - -
23/08:30am 27.9 ESE 10 15 1013.5 - 0.0 - - - - - - -
23/08:00am 27.4 ESE 10 15 1013.1 - 0.0 - - - - - - -
23/07:30am 26.6 ESE 11 17 1012.8 - 0.0 - - - - - - -
23/07:00am 26.3 ESE 11 15 1012.4 - 0.0 - - - - - - -
23/06:30am 26.6 ESE 9 14 1011.8 - 0.0 - - - - - - -
23/06:00am 26.6 ESE 8 12 1011.5 - 0.0 - - - - - - -
23/05:30am 26.6 SE 8 13 1011.2 - 0.0 - - - - - - -
23/05:00am 26.5 SE 9 12 1011.0 - 0.0 - - - - - - -
23/04:30am 26.6 SE 11 15 1010.8 - 0.0 - - - - - - -
23/04:00am 26.7 ESE 10 17 1010.8 - 0.0 - - - - - - -
23/03:30am 27.0 SE 10 15 1010.9 - 0.0 - - - - - - -
23/03:00am 27.1 SE 11 16 1011.2 - 0.0 - - - - - - -
23/02:30am 27.5 SE 9 13 1011.5 - 0.0 - - - - - - -
23/01:30am 27.9 ESE 8 12 1011.9 - 0.0 - - - - - - -
23/01:00am 27.8 ESE 7 9 1012.0 - 0.0 - - - - - - -
23/12:30am 28.3 ESE 9 12 1012.1 - 0.0 - - - - - - -
23/12:00am 28.2 ESE 6 10 1012.2 - 0.0 - - - - - - -
 
Date/Time
CST
Temp
°C
Wind Pressure Rain since
9am
mm
Weather Cloud Vis
km
Sea
Height
m
Swell
Dir  Spd
kts
Gust
kts
hPa Trend Height
m
Period
s
Dir
22/11:30pm 28.4 ESE 9 13 1012.4 - 0.0 - - - - - - -
22/11:00pm 28.3 ESE 8 11 1012.6 - 0.0 - - - - - - -
22/10:30pm 28.3 E 8 11 1012.9 - 0.0 - - - - - - -
22/10:00pm 28.2 E 7 10 1012.8 - 0.0 - - - - - - -
22/09:30pm 28.1 E 7 11 1012.8 - 0.0 - - - - - - -
22/09:00pm 28.0 ENE 4 6 1012.7 - 0.0 - - - - - - -
22/08:30pm 27.9 ENE 3 5 1012.5 - 0.0 - - - - - - -
22/08:00pm 27.9 ENE 3 4 1012.2 - 0.0 - - - - - - -
22/07:30pm 28.0 ENE 3 6 1011.8 - 0.0 - - - - - - -
22/07:00pm 28.1 NE 4 6 1011.4 - 0.0 - - - - - - -
22/06:30pm 28.3 ENE 4 7 1011.1 - 0.0 - - - - - - -
22/06:00pm 28.8 NE 4 9 1010.8 - 0.0 - - - - - - -
22/05:30pm 29.5 ENE 5 9 1010.6 - 0.0 - - - - - - -
22/05:00pm 29.8 ENE 5 9 1010.4 - 0.0 - - - - - - -
22/04:30pm 30.5 ENE 7 11 1010.1 - 0.0 - - - - - - -
22/04:00pm 30.5 ENE 8 13 1010.0 - 0.0 - - - - - - -
22/03:30pm 30.9 ENE 8 13 1010.0 - 0.0 - - - - - - -
22/03:00pm 30.4 ENE 9 14 1010.1 - 0.0 - - - - - - -
22/02:30pm 31.0 E 9 14 1010.4 - 0.0 - - - - - - -
22/02:00pm 30.7 E 10 16 1010.8 - 0.0 - - - - - - -
22/01:30pm 30.7 E 9 14 1011.2 - 0.0 - - - - - - -
22/01:00pm 30.7 E 10 14 1011.6 - 0.0 - - - - - - -
22/12:30pm 31.1 E 9 14 1012.0 - 0.0 - - - - - - -
22/12:00pm 30.9 E 11 15 1012.6 - 0.0 - - - - - - -
22/11:30am 30.5 E 9 13 1013.1 - 0.0 - - - - - - -
22/11:00am 30.6 ESE 10 15 1013.2 - 0.0 - - - - - - -
22/10:30am 29.6 ESE 10 15 1013.2 - 0.0 - - - - - - -
22/10:00am 29.4 ESE 10 14 1013.1 - 0.0 - - - - - - -
22/09:30am 28.4 ESE 11 16 1013.0 - 0.0 - - - - - - -
22/09:00am 28.3 ESE 11 16 1012.9 - 0.0 - - - - - - -
22/08:30am 27.3 ESE 11 18 1012.9 - 0.0 - - - - - - -
22/08:00am 26.8 ESE 10 16 1012.6 - 0.0 - - - - - - -
22/07:30am 26.6 ESE 10 15 1012.4 - 0.0 - - - - - - -
22/07:00am 26.4 ESE 10 15 1012.1 - 0.0 - - - - - - -
22/06:30am 26.4 ESE 10 17 1011.9 - 0.0 - - - - - - -
22/06:00am 26.6 ESE 11 17 1011.7 - 0.0 - - - - - - -
22/05:30am 26.7 ESE 10 15 1011.6 - 0.0 - - - - - - -
22/05:00am 26.8 ESE 9 13 1011.2 - 0.0 - - - - - - -
22/04:30am 26.8 ESE 10 15 1011.0 - 0.0 - - - - - - -
22/04:00am 26.9 SE 8 12 1010.7 - 0.0 - - - - - - -
22/03:30am 26.8 SE 8 11 1010.6 - 0.0 - - - - - - -
22/03:00am 27.0 ESE 8 11 1010.7 - 0.0 - - - - - - -
22/02:30am 27.1 ESE 9 13 1010.8 - 0.0 - - - - - - -
22/02:00am 27.1 ESE 9 13 1010.7 - 0.0 - - - - - - -
22/01:30am 27.1 SE 7 11 1010.8 - 0.0 - - - - - - -
22/01:00am 27.3 ESE 6 10 1010.7 - 0.0 - - - - - - -
22/12:30am 27.6 ESE 7 11 1010.7 - 0.0 - - - - - - -
22/12:00am 27.7 SE 7 11 1010.7 - 0.0 - - - - - - -
 
Date/Time
CST
Temp
°C
Wind Pressure Rain since
9am
mm
Weather Cloud Vis
km
Sea
Height
m
Swell
Dir  Spd
kts
Gust
kts
hPa Trend Height
m
Period
s
Dir
21/11:30pm 28.0 ESE 8 13 1011.0 - 0.0 - - - - - - -
21/11:00pm 28.1 E 9 14 1011.1 - 0.0 - - - - - - -
21/10:30pm 28.1 E 9 13 1011.1 - 0.0 - - - - - - -
21/10:00pm 28.1 E 8 11 1011.1 - 0.0 - - - - - - -
21/09:30pm 28.0 E 6 10 1011.1 - 0.0 - - - - - - -
21/09:00pm 27.8 E 8 11 1010.8 - 0.0 - - - - - - -
21/08:30pm 27.8 E 7 10 1010.3 - 0.0 - - - - - - -
21/08:00pm 27.8 E 7 10 1010.0 - 0.0 - - - - - - -
21/07:30pm 27.7 E 8 12 1009.6 - 0.0 - - - - - - -
21/07:00pm 27.9 E 8 11 1009.2 - 0.0 - - - - - - -
21/06:30pm 27.9 E 8 12 1008.9 - 0.0 - - - - - - -
21/06:00pm 28.1 E 7 11 1008.8 - 0.0 - - - - - - -
21/05:30pm 28.8 E 7 11 1008.7 - 0.0 - - - - - - -
21/05:00pm 29.4 E 7 10 1008.4 - 0.0 - - - - - - -
21/04:30pm 29.5 E 7 11 1008.4 - 0.0 - - - - - - -
21/04:00pm 30.0 E 7 10 1008.3 - 0.0 - - - - - - -
21/03:30pm 29.8 E 8 10 1008.3 - 0.0 - - - - - - -
21/03:00pm 30.2 E 8 12 1008.6 - 0.0 - - - - - - -
21/02:30pm 30.0 E 7 10 1008.9 - 0.0 - - - - - - -
21/02:00pm 30.3 E 8 12 1009.2 - 0.0 - - - - - - -
21/01:30pm 29.6 E 8 12 1009.6 - 0.0 - - - - - - -
21/01:00pm 29.5 E 9 13 1010.1 - 0.0 - - - - - - -
21/12:30pm 29.4 E 9 15 1010.7 - 0.0 - - - - - - -
21/12:00pm 29.9 ESE 8 11 1011.1 - 0.0 - - - - - - -
21/11:30am 29.2 E 8 11 1011.3 - 0.0 - - - - - - -
21/11:00am 29.6 ESE 8 12 1011.5 - 0.0 - - - - - - -
21/10:30am 28.7 ESE 8 11 1011.5 - 0.0 - - - - - - -
21/10:00am 28.5 SE 7 9 1011.5 - 0.0 - - - - - - -
21/09:30am 27.8 SE 6 8 1011.5 - 0.0 - - - - - - -
21/09:00am 27.1 SSE 6 8 1011.5 - 0.0 - - - - - - -
21/08:30am 26.9 SE 7 11 1011.2 - 0.0 - - - - - - -
21/08:00am 26.1 SE 7 9 1010.8 - 0.0 - - - - - - -
21/07:30am 25.2 SE 7 10 1010.5 - 0.0 - - - - - - -
21/07:00am 24.9 SE 8 11 1010.2 - 0.0 - - - - - - -
21/06:30am 25.0 ESE 9 12 1009.9 - 0.0 - - - - - - -
21/06:00am 25.1 ESE 10 14 1009.5 - 0.0 - - - - - - -
21/05:30am 24.9 ESE 9 14 1009.2 - 0.0 - - - - - - -
21/05:00am 25.0 ESE 10 15 1009.0 - 0.0 - - - - - - -
21/04:30am 25.3 ESE 9 14 1008.7 - 0.0 - - - - - - -
21/04:00am 25.8 ESE 11 16 1008.6 - 0.0 - - - - - - -
21/03:30am 26.0 ESE 9 14 1008.7 - 0.0 - - - - - - -
21/03:00am 26.2 ESE 11 16 1008.7 - 0.0 - - - - - - -
21/02:30am 26.4 ESE 11 16 1008.8 - 0.0 - - - - - - -
21/02:00am 26.5 ESE 11 16 1009.3 - 0.0 - - - - - - -
21/01:30am 26.6 ESE 7 10 1009.5 - 0.0 - - - - - - -
21/01:00am 26.2 SSE 3 5 1009.6 - 0.0 - - - - - - -
21/12:30am 25.6 SSW 2 3 1009.5 - 0.0 - - - - - - -
21/12:00am 25.2 SSW 2 3 1009.4 - 0.0 - - - - - - -
 
Date/Time
CST
Temp
°C
Wind Pressure Rain since
9am
mm
Weather Cloud Vis
km
Sea
Height
m
Swell
Dir  Spd
kts
Gust
kts
hPa Trend Height
m
Period
s
Dir
20/11:30pm 25.0 CALM 0 0 1009.5 - 0.0 - - - - - - -
20/11:00pm 25.1 CALM 0 0 1009.7 - 0.0 - - - - - - -
20/10:30pm 25.2 CALM 0 0 1009.7 - 0.0 - - - - - - -

Other Formats:

Comma delimited format used in spreadsheet applications
http://www.bom.gov.au/fwo/IDD60701/IDD60701.94139.axf

JavaScript Object Notation format (JSON) in row-major order
http://www.bom.gov.au/fwo/IDD60701/IDD60701.94139.json